Athens, IN (46912)

10:49 PM EST on January 22, 2018 (GMT -0500)
Smith Court Weather Station | | Change Station

Elev 758 ft 41.05 °N, 86.19 °W | Updated 7 minutes ago

Mostly Cloudy
Mostly Cloudy
39.9 °F
Feels Like 35 °F
N
6.8
Wind Variable Wind from West

Today
High -- | Low -- °F
--% Chance of Precip.
Yesterday
High -- | Low -- °F
Precip. -- in
Pressure 29.57 in
Visibility 10.0 miles
Clouds Scattered Clouds 1700 ft
Scattered Clouds 3200 ft
Mostly Cloudy 9000 ft
Windchill 35 °F
Dew Point 39 °F
Humidity 96%
Rainfall in
Snow Depth Not available.
8:03 AM 5:49 PM
Waxing Crescent, 32% visible
METAR KRCR 230335Z AUTO 27012G18KT 10SM SCT017 SCT032 BKN090 06/03 A2957 RMK AO2 LTG DSNT N THRU E P0001
Pressure 29.57 in
Visibility 10.0 miles
Clouds Scattered Clouds 1700 ft
Scattered Clouds 3200 ft
Mostly Cloudy 9000 ft
Windchill 35 °F
Dew Point 39 °F
Humidity 96%
Rainfall in
Snow Depth Not available.
8:03 AM 5:49 PM
Waxing Crescent, 32% visible
METAR KRCR 230335Z AUTO 27012G18KT 10SM SCT017 SCT032 BKN090 06/03 A2957 RMK AO2 LTG DSNT N THRU E P0001

Get Severe Weather Alerts

Thanks for signing up!

Be on the lookout for a verification email in your inbox.

You'll start receiving the daily forecast at 6 AM.

×

10-Day Weather Forecast

Almanac

Astronomy

Jan. 22, 2018 Rise Set
Actual Time
Civil Twilight
Nautical Twilight
Astronomical Twilight
Moon
Length of Visible Light
Length of Day
Tomorrow will be .
, % of the Moon is Illuminated

Today's Extremes

State Highs State Lows

Community

WunderPhotos

Category 6

Welcome to Category 6. This is the collective home for Weather Underground's featured writeups by Dr. Jeff Masters (right), Bob Henson (left), Chris Burt, and other regular contributors.

Nearby

Air Quality

  Air Quality AQ Index Pollutant
Not available.

Snow Depth

Station Depth Elevation

Earthquake Activity

City Distance Mag. Time & Date
Minimum magnitude displayed is 2.5.

Coastal Water Temperatures

Place Temperature

Stations

Nearby Weather Stations

Station Location Temp. Windchill Dew Point Humidity Wind Precip. Elev Updated Type
                   

Watches & Warnings

There are currently no watches in effect.